Time;durP1;ratioP1;P1;durP2;ratioP2;P2;SDS_P1;SDS_P2;PMS_P1;PMS_P2;Temp;Humidity;BMP_temperature;BMP_pressure;BME280_temperature;BME280_humidity;BME280_pressure;Samples;Min_cycle;Max_cycle;Signal;HPM_P1;HPM_P2
2021/03/31 00:01:11;;;;;;;27.23;14.13;;;;;;;;;;5036100;28;20186;-70
2021/03/31 00:03:37;;;;;;;32.50;14.80;;;;;;;;;;5033772;28;20279;-71
2021/03/31 00:06:02;;;;;;;29.80;14.83;;;;;;;;;;5037177;28;20233;-71
2021/03/31 00:08:27;;;;;;;29.00;15.57;;;;;;;;;;5023017;28;20560;-71
2021/03/31 00:10:53;;;;;;;31.63;15.17;;;;;;;;;;5042268;28;20235;-71
2021/03/31 00:13:19;;;;;;;27.60;15.23;;;;;;;;;;5027918;28;20197;-71
2021/03/31 00:15:45;;;;;;;26.73;14.57;;;;;;;;;;5036538;28;20189;-71
2021/03/31 00:18:13;;;;;;;30.02;15.73;;;;;;;;;;5023459;28;20205;-71
2021/03/31 00:20:40;;;;;;;29.85;14.85;;;;;;;;;;5037582;28;20189;-71
2021/03/31 00:23:07;;;;;;;26.25;14.63;;;;;;;;;;5032975;28;20188;-71
2021/03/31 00:25:32;;;;;;;25.83;14.80;;;;;;;;;;5039100;28;20181;-71
2021/03/31 00:27:58;;;;;;;30.40;16.13;;;;;;;;;;5029350;28;20180;-70
2021/03/31 00:30:24;;;;;;;32.13;16.02;;;;;;;;;;5040906;28;20746;-71
2021/03/31 00:32:49;;;;;;;32.87;16.83;;;;;;;;;;5030872;28;20675;-69
2021/03/31 00:35:15;;;;;;;34.77;16.40;;;;;;;;;;5032343;28;20260;-69
2021/03/31 00:37:40;;;;;;;25.60;14.98;;;;;;;;;;5036631;28;20650;-70
2021/03/31 00:40:18;;;;;;;32.20;16.27;;;;;;;;;;5023179;28;20192;-69
2021/03/31 00:42:45;;;;;;;30.80;16.10;;;;;;;;;;5038398;28;20173;-70
2021/03/31 00:45:13;;;;;;;31.20;16.07;;;;;;;;;;5029293;28;20182;-70
2021/03/31 00:47:38;;;;;;;28.50;16.03;;;;;;;;;;5037138;28;20221;-70
2021/03/31 00:50:10;;;;;;;30.33;16.37;;;;;;;;;;5031986;28;20186;-70
2021/03/31 00:52:37;;;;;;;30.30;16.80;;;;;;;;;;5039790;28;20762;-70
2021/03/31 00:55:03;;;;;;;33.67;16.77;;;;;;;;;;5036235;28;20200;-70
2021/03/31 00:57:29;;;;;;;27.67;16.37;;;;;;;;;;5040269;28;20279;-69
2021/03/31 00:59:54;;;;;;;26.77;16.47;;;;;;;;;;5030781;28;20733;-70
2021/03/31 01:02:19;;;;;;;26.67;16.40;;;;;;;;;;5038043;28;20193;-70
2021/03/31 01:04:45;;;;;;;31.00;17.27;;;;;;;;;;5024956;28;20215;-70
2021/03/31 01:07:10;;;;;;;31.37;16.60;;;;;;;;;;5041134;28;20179;-70
2021/03/31 01:09:36;;;;;;;30.13;16.90;;;;;;;;;;5038373;28;20227;-70
2021/03/31 01:12:11;;;;;;;27.93;16.57;;;;;;;;;;5037208;28;20196;-71
2021/03/31 01:14:55;;;;;;;29.50;17.67;;;;;;;;;;5036556;28;20177;-71
2021/03/31 01:17:29;;;;;;;31.07;18.30;;;;;;;;;;5039805;28;20674;-71
2021/03/31 01:20:23;;;;;;;28.53;16.57;;;;;;;;;;5039556;28;20185;-71
2021/03/31 01:23:26;;;;;;;29.90;17.70;;;;;;;;;;5042772;28;20637;-71
2021/03/31 01:26:19;;;;;;;30.27;17.40;;;;;;;;;;5032236;28;20197;-70
2021/03/31 01:28:58;;;;;;;29.80;17.03;;;;;;;;;;5043204;28;20196;-70
2021/03/31 01:31:51;;;;;;;30.07;17.23;;;;;;;;;;5031245;28;20227;-69
2021/03/31 01:34:44;;;;;;;33.50;17.93;;;;;;;;;;5038527;28;20701;-69
2021/03/31 01:37:16;;;;;;;30.27;17.63;;;;;;;;;;5029925;28;20185;-69
2021/03/31 01:39:45;;;;;;;31.60;17.47;;;;;;;;;;5043353;28;20186;-69
2021/03/31 01:42:12;;;;;;;32.73;18.73;;;;;;;;;;5030908;28;20216;-70
2021/03/31 01:44:41;;;;;;;38.27;18.03;;;;;;;;;;5040531;28;20261;-70
2021/03/31 01:47:08;;;;;;;34.10;18.87;;;;;;;;;;5030501;28;20190;-70
2021/03/31 01:49:34;;;;;;;33.33;18.80;;;;;;;;;;5035868;28;20185;-70
2021/03/31 01:52:02;;;;;;;36.30;18.53;;;;;;;;;;5033557;28;20186;-70
2021/03/31 01:54:28;;;;;;;33.13;19.33;;;;;;;;;;5038748;28;20548;-70
2021/03/31 01:56:55;;;;;;;32.43;18.77;;;;;;;;;;5032689;28;20197;-70
2021/03/31 01:59:22;;;;;;;33.43;19.13;;;;;;;;;;5040061;28;20197;-70
2021/03/31 02:01:51;;;;;;;34.53;19.03;;;;;;;;;;5039757;28;20189;-70
2021/03/31 02:04:18;;;;;;;33.20;18.57;;;;;;;;;;5033054;28;20204;-70
2021/03/31 02:06:45;;;;;;;38.33;19.17;;;;;;;;;;5040965;28;20309;-70
2021/03/31 02:09:10;;;;;;;31.40;18.70;;;;;;;;;;5034648;28;20255;-71
2021/03/31 02:11:37;;;;;;;34.63;18.90;;;;;;;;;;5044270;28;20182;-71
2021/03/31 02:14:03;;;;;;;28.47;16.97;;;;;;;;;;5032805;28;20463;-69
2021/03/31 02:16:32;;;;;;;34.00;17.23;;;;;;;;;;5039918;28;20597;-70
2021/03/31 02:18:59;;;;;;;27.47;17.13;;;;;;;;;;5030083;28;20288;-70
2021/03/31 02:21:25;;;;;;;31.73;17.63;;;;;;;;;;5038314;28;20191;-69
2021/03/31 02:23:52;;;;;;;34.03;17.93;;;;;;;;;;5028724;28;20290;-69
2021/03/31 02:26:17;;;;;;;33.60;18.87;;;;;;;;;;5038617;28;20201;-70
2021/03/31 02:28:44;;;;;;;33.80;17.83;;;;;;;;;;5036611;28;20239;-68
2021/03/31 02:31:10;;;;;;;30.87;18.10;;;;;;;;;;5039102;28;20657;-69
2021/03/31 02:33:36;;;;;;;32.33;18.07;;;;;;;;;;5039338;28;20283;-70
2021/03/31 02:36:02;;;;;;;30.87;17.93;;;;;;;;;;5038617;28;20185;-70
2021/03/31 02:38:29;;;;;;;30.20;18.33;;;;;;;;;;5033914;28;20610;-70
2021/03/31 02:40:55;;;;;;;28.23;17.23;;;;;;;;;;5030216;28;20216;-70
2021/03/31 02:43:22;;;;;;;31.07;16.93;;;;;;;;;;5034030;28;20676;-70
2021/03/31 02:45:52;;;;;;;35.47;17.97;;;;;;;;;;5030420;28;20201;-69
2021/03/31 02:48:17;;;;;;;30.40;17.53;;;;;;;;;;5043818;28;20655;-69
2021/03/31 02:50:46;;;;;;;30.23;17.03;;;;;;;;;;5033590;28;20272;-69
2021/03/31 02:53:13;;;;;;;30.27;16.50;;;;;;;;;;5033014;28;20189;-69
2021/03/31 02:55:39;;;;;;;30.63;16.70;;;;;;;;;;5032608;28;20503;-70
2021/03/31 02:58:07;;;;;;;30.87;15.70;;;;;;;;;;5038071;28;20221;-70
2021/03/31 03:00:33;;;;;;;29.83;17.00;;;;;;;;;;5027947;28;20185;-70
2021/03/31 03:03:01;;;;;;;31.17;16.77;;;;;;;;;;5040729;28;20197;-70
2021/03/31 03:05:27;;;;;;;27.63;16.23;;;;;;;;;;5026688;28;20201;-70
2021/03/31 03:07:52;;;;;;;28.87;17.77;;;;;;;;;;5041845;28;20313;-70
2021/03/31 03:10:18;;;;;;;28.73;17.00;;;;;;;;;;5026883;28;20201;-70
2021/03/31 03:12:53;;;;;;;26.80;16.50;;;;;;;;;;5039946;28;20733;-69
2021/03/31 03:15:20;;;;;;;30.57;16.90;;;;;;;;;;5039316;28;20193;-69
2021/03/31 03:17:47;;;;;;;33.23;17.33;;;;;;;;;;5027411;28;20214;-69
2021/03/31 03:20:14;;;;;;;31.27;17.13;;;;;;;;;;5037122;28;20221;-70
2021/03/31 03:22:42;;;;;;;30.60;16.77;;;;;;;;;;5033080;28;20220;-70
2021/03/31 03:25:09;;;;;;;32.73;16.57;;;;;;;;;;5031797;28;20269;-70
2021/03/31 03:27:36;;;;;;;28.50;15.53;;;;;;;;;;5034851;28;20696;-70
2021/03/31 03:30:06;;;;;;;29.30;16.40;;;;;;;;;;5043351;28;20210;-70
2021/03/31 03:32:33;;;;;;;28.57;16.23;;;;;;;;;;5031194;28;20528;-70
2021/03/31 03:34:58;;;;;;;35.87;17.67;;;;;;;;;;5041396;28;20190;-69
2021/03/31 03:37:24;;;;;;;32.07;16.33;;;;;;;;;;5032408;28;20207;-69
2021/03/31 03:39:49;;;;;;;31.23;17.37;;;;;;;;;;5037498;28;20531;-70
2021/03/31 03:42:15;;;;;;;32.80;17.63;;;;;;;;;;5031283;28;20186;-70
2021/03/31 03:44:40;;;;;;;31.17;16.77;;;;;;;;;;5034941;28;20663;-70
2021/03/31 03:47:06;;;;;;;26.13;16.27;;;;;;;;;;5025099;28;20197;-70
2021/03/31 03:49:37;;;;;;;31.23;16.37;;;;;;;;;;5038056;28;20229;-70
2021/03/31 03:52:04;;;;;;;30.93;16.13;;;;;;;;;;5037634;28;20618;-69
2021/03/31 03:54:29;;;;;;;28.23;15.53;;;;;;;;;;5030861;28;20186;-69
2021/03/31 03:56:55;;;;;;;32.03;15.80;;;;;;;;;;5034212;28;20235;-69
2021/03/31 03:59:22;;;;;;;31.77;17.53;;;;;;;;;;5032720;28;20681;-70
2021/03/31 04:01:50;;;;;;;27.17;15.97;;;;;;;;;;5035860;28;20643;-70
2021/03/31 04:04:17;;;;;;;34.50;16.87;;;;;;;;;;5032697;28;20489;-69
2021/03/31 04:06:42;;;;;;;27.80;15.87;;;;;;;;;;5033738;28;20183;-69
2021/03/31 04:09:07;;;;;;;30.40;16.37;;;;;;;;;;5029269;28;20806;-70
2021/03/31 04:11:34;;;;;;;28.23;15.70;;;;;;;;;;5038467;28;20653;-70
2021/03/31 04:14:01;;;;;;;28.03;15.77;;;;;;;;;;5030686;28;20495;-70
2021/03/31 04:16:29;;;;;;;28.67;16.13;;;;;;;;;;5036902;28;20276;-70
2021/03/31 04:18:56;;;;;;;35.87;18.17;;;;;;;;;;5024197;28;20201;-70
2021/03/31 04:21:22;;;;;;;27.57;16.47;;;;;;;;;;5035449;28;21356;-70
2021/03/31 04:23:47;;;;;;;31.10;16.80;;;;;;;;;;5041481;28;20185;-70
2021/03/31 04:26:13;;;;;;;33.23;17.40;;;;;;;;;;5030127;28;20192;-70
2021/03/31 04:28:39;;;;;;;34.93;17.37;;;;;;;;;;5038052;28;20193;-70
2021/03/31 04:31:05;;;;;;;30.77;17.53;;;;;;;;;;5028965;28;20323;-70
2021/03/31 04:33:32;;;;;;;27.83;15.53;;;;;;;;;;5037998;28;20323;-69
2021/03/31 04:35:57;;;;;;;27.17;14.93;;;;;;;;;;5028613;28;20194;-69
2021/03/31 04:38:23;;;;;;;30.07;15.37;;;;;;;;;;5027336;28;20573;-69
2021/03/31 04:40:57;;;;;;;23.43;14.37;;;;;;;;;;5022297;28;21622;-70
2021/03/31 04:43:25;;;;;;;25.27;13.80;;;;;;;;;;5029414;28;20193;-70
2021/03/31 04:45:54;;;;;;;26.03;13.93;;;;;;;;;;5024039;28;20200;-69
2021/03/31 04:48:19;;;;;;;25.47;13.93;;;;;;;;;;5034059;28;20240;-69
2021/03/31 04:50:45;;;;;;;25.30;14.37;;;;;;;;;;5026081;28;20646;-69
2021/03/31 04:53:10;;;;;;;24.03;14.00;;;;;;;;;;5033346;28;20645;-69
2021/03/31 04:55:35;;;;;;;27.37;14.60;;;;;;;;;;5029836;28;20225;-70
2021/03/31 04:58:02;;;;;;;24.63;14.27;;;;;;;;;;5031340;28;20212;-69
2021/03/31 05:00:28;;;;;;;24.27;13.90;;;;;;;;;;5032219;28;20198;-70
2021/03/31 05:02:53;;;;;;;23.23;13.87;;;;;;;;;;5024438;28;20248;-70
2021/03/31 05:05:19;;;;;;;23.93;12.83;;;;;;;;;;5036661;28;20261;-70
2021/03/31 05:07:44;;;;;;;24.93;12.73;;;;;;;;;;5027618;28;20189;-70
2021/03/31 05:10:10;;;;;;;21.77;12.87;;;;;;;;;;5031925;28;20594;-69
2021/03/31 05:12:35;;;;;;;23.63;13.37;;;;;;;;;;5021309;28;20195;-69
2021/03/31 05:15:01;;;;;;;31.97;14.43;;;;;;;;;;5033848;28;20189;-70
2021/03/31 05:17:26;;;;;;;28.23;15.13;;;;;;;;;;5018949;28;20529;-70
2021/03/31 05:19:51;;;;;;;30.10;15.57;;;;;;;;;;5035988;28;20190;-70
2021/03/31 05:22:17;;;;;;;30.77;15.40;;;;;;;;;;5023283;28;20247;-70
2021/03/31 05:24:42;;;;;;;25.37;15.13;;;;;;;;;;5035472;28;20766;-70
2021/03/31 05:27:07;;;;;;;30.80;15.83;;;;;;;;;;5032796;28;20300;-70
2021/03/31 05:29:33;;;;;;;30.43;15.30;;;;;;;;;;5026846;28;20186;-70
2021/03/31 05:31:59;;;;;;;29.57;16.03;;;;;;;;;;5032627;28;20186;-70
2021/03/31 05:34:24;;;;;;;33.30;16.97;;;;;;;;;;5032811;28;20897;-69
2021/03/31 05:36:49;;;;;;;31.03;15.70;;;;;;;;;;5042266;28;20193;-70
2021/03/31 05:39:15;;;;;;;28.10;16.30;;;;;;;;;;5028048;28;20252;-69
2021/03/31 05:41:40;;;;;;;26.40;14.17;;;;;;;;;;5041507;28;20186;-70
2021/03/31 05:44:07;;;;;;;23.83;14.63;;;;;;;;;;5027539;28;20196;-69
2021/03/31 05:46:36;;;;;;;24.73;14.87;;;;;;;;;;5039570;28;20178;-69
2021/03/31 05:49:01;;;;;;;30.23;15.83;;;;;;;;;;5033664;28;20264;-69
2021/03/31 05:51:27;;;;;;;29.73;16.13;;;;;;;;;;5043977;28;20209;-70
2021/03/31 05:53:52;;;;;;;29.43;15.83;;;;;;;;;;5037010;28;20188;-69
2021/03/31 05:56:18;;;;;;;26.40;15.53;;;;;;;;;;5035436;28;20186;-70
2021/03/31 05:58:43;;;;;;;30.27;15.87;;;;;;;;;;4337123;28;10000718;-70
2021/03/31 06:01:09;;;;;;;27.60;15.30;;;;;;;;;;5026618;28;20447;-70
2021/03/31 06:03:34;;;;;;;25.50;14.50;;;;;;;;;;5033407;28;20579;-70
2021/03/31 06:06:00;;;;;;;26.10;15.47;;;;;;;;;;5023565;28;20525;-70
2021/03/31 06:08:25;;;;;;;27.53;15.07;;;;;;;;;;5029094;28;20309;-70
2021/03/31 06:11:01;;;;;;;26.03;14.50;;;;;;;;;;5023712;28;20244;-70
2021/03/31 06:13:47;;;;;;;24.73;15.57;;;;;;;;;;5037093;28;20193;-70
2021/03/31 06:16:36;;;;;;;28.70;15.77;;;;;;;;;;5028796;28;20202;-70
2021/03/31 06:19:21;;;;;;;31.40;16.10;;;;;;;;;;5038570;28;20238;-69
2021/03/31 06:22:21;;;;;;;32.03;15.03;;;;;;;;;;5032281;28;20186;-69
2021/03/31 06:25:17;;;;;;;25.43;15.07;;;;;;;;;;5036552;28;20185;-70
2021/03/31 06:27:50;;;;;;;30.83;16.93;;;;;;;;;;5041767;28;20227;-70
2021/03/31 06:30:23;;;;;;;35.00;17.40;;;;;;;;;;5038078;28;20193;-70
2021/03/31 06:32:52;;;;;;;33.20;17.83;;;;;;;;;;5031304;28;20189;-70
2021/03/31 06:35:23;;;;;;;27.80;15.73;;;;;;;;;;5038295;28;20554;-70
2021/03/31 06:37:49;;;;;;;30.83;18.10;;;;;;;;;;5034444;28;20323;-70
2021/03/31 06:40:41;;;;;;;31.87;17.93;;;;;;;;;;5034686;28;20645;-70
2021/03/31 06:43:25;;;;;;;35.20;19.23;;;;;;;;;;5028379;28;20257;-70
2021/03/31 06:46:09;;;;;;;31.93;17.70;;;;;;;;;;5048693;28;20178;-70
2021/03/31 06:48:42;;;;;;;31.60;18.13;;;;;;;;;;5033023;28;20267;-70
2021/03/31 06:51:28;;;;;;;33.40;17.87;;;;;;;;;;5032990;28;20192;-70
2021/03/31 06:53:53;;;;;;;30.97;17.57;;;;;;;;;;5040163;28;20612;-70
2021/03/31 06:56:27;;;;;;;32.63;18.37;;;;;;;;;;5034740;28;20217;-71
2021/03/31 06:58:57;;;;;;;28.07;17.33;;;;;;;;;;5029350;28;20210;-70
2021/03/31 07:01:32;;;;;;;35.27;18.27;;;;;;;;;;5034810;28;20595;-70
2021/03/31 07:04:05;;;;;;;30.37;17.97;;;;;;;;;;5031628;28;20911;-70
2021/03/31 07:06:31;;;;;;;33.50;18.20;;;;;;;;;;5046361;28;20687;-70
2021/03/31 07:08:57;;;;;;;33.37;18.57;;;;;;;;;;5033981;28;20184;-70
2021/03/31 07:11:40;;;;;;;32.57;17.23;;;;;;;;;;5035530;28;20586;-70
2021/03/31 07:14:07;;;;;;;36.43;17.27;;;;;;;;;;5028666;28;20230;-70
2021/03/31 07:16:33;;;;;;;34.43;16.90;;;;;;;;;;5044225;28;20675;-70
2021/03/31 07:18:59;;;;;;;34.60;18.20;;;;;;;;;;5032512;28;20206;-70
2021/03/31 07:21:25;;;;;;;33.80;18.13;;;;;;;;;;5038394;28;20716;-70
2021/03/31 07:23:51;;;;;;;27.63;17.27;;;;;;;;;;5031202;28;20190;-71
2021/03/31 07:26:19;;;;;;;33.57;18.03;;;;;;;;;;5037723;28;20224;-72
2021/03/31 07:28:45;;;;;;;30.65;18.23;;;;;;;;;;5027650;28;20193;-70
2021/03/31 07:31:14;;;;;;;35.20;17.58;;;;;;;;;;5037548;28;20675;-70
2021/03/31 07:33:42;;;;;;;26.83;16.48;;;;;;;;;;5024210;28;20287;-69
2021/03/31 07:36:12;;;;;;;26.65;14.50;;;;;;;;;;5028518;28;20185;-69
2021/03/31 07:38:39;;;;;;;22.63;13.60;;;;;;;;;;5036282;28;20206;-70
2021/03/31 07:41:05;;;;;;;21.23;12.63;;;;;;;;;;5038974;28;20181;-70
2021/03/31 07:43:44;;;;;;;24.63;12.45;;;;;;;;;;5038188;28;20189;-70
2021/03/31 07:46:19;;;;;;;26.02;12.93;;;;;;;;;;5027894;28;20178;-70
2021/03/31 07:48:45;;;;;;;21.23;11.05;;;;;;;;;;5038577;28;20710;-70
2021/03/31 07:51:22;;;;;;;26.75;12.73;;;;;;;;;;5027293;28;20190;-70
2021/03/31 07:53:49;;;;;;;20.75;12.07;;;;;;;;;;5037754;28;20703;-71
2021/03/31 07:56:17;;;;;;;19.70;10.75;;;;;;;;;;5026266;28;20220;-70
2021/03/31 07:59:09;;;;;;;20.48;10.95;;;;;;;;;;5032719;28;20586;-70
2021/03/31 08:01:40;;;;;;;20.98;11.27;;;;;;;;;;5028674;28;20522;-70
2021/03/31 08:04:06;;;;;;;21.73;10.60;;;;;;;;;;5034561;28;20206;-68
2021/03/31 08:06:33;;;;;;;23.13;10.88;;;;;;;;;;5028562;28;20261;-70
2021/03/31 08:09:20;;;;;;;22.40;11.13;;;;;;;;;;5036329;28;20177;-70
2021/03/31 08:11:57;;;;;;;20.02;11.40;;;;;;;;;;5026659;28;20559;-69
2021/03/31 08:14:26;;;;;;;22.33;11.77;;;;;;;;;;5037637;28;20551;-69
2021/03/31 08:16:52;;;;;;;22.02;12.35;;;;;;;;;;5033162;28;20729;-70
2021/03/31 08:19:24;;;;;;;22.92;12.38;;;;;;;;;;5036625;28;20208;-69
2021/03/31 08:21:52;;;;;;;22.98;12.40;;;;;;;;;;5033987;28;20192;-70
2021/03/31 08:24:18;;;;;;;23.02;12.32;;;;;;;;;;5038536;28;20186;-70
2021/03/31 08:26:45;;;;;;;22.00;13.02;;;;;;;;;;5023638;28;20222;-70
2021/03/31 08:29:19;;;;;;;24.85;12.02;;;;;;;;;;5038615;28;20181;-70
2021/03/31 08:31:55;;;;;;;26.67;13.57;;;;;;;;;;5034177;28;20560;-70
2021/03/31 08:34:21;;;;;;;28.95;13.10;;;;;;;;;;5032671;28;20204;-70
2021/03/31 08:36:46;;;;;;;23.20;13.45;;;;;;;;;;5025234;28;20189;-70
2021/03/31 08:39:13;;;;;;;21.88;13.20;;;;;;;;;;5033831;28;20279;-70
2021/03/31 08:41:40;;;;;;;22.27;13.73;;;;;;;;;;5039876;28;20272;-70
2021/03/31 08:44:17;;;;;;;22.88;13.25;;;;;;;;;;5025900;28;20182;-70
2021/03/31 08:46:43;;;;;;;22.30;13.20;;;;;;;;;;5031970;28;20581;-70
2021/03/31 08:49:24;;;;;;;21.80;13.60;;;;;;;;;;5023387;28;20225;-70
2021/03/31 08:51:52;;;;;;;27.90;14.50;;;;;;;;;;5037855;28;20185;-69
2021/03/31 08:54:36;;;;;;;26.17;14.38;;;;;;;;;;5022092;28;20774;-70
2021/03/31 08:57:05;;;;;;;29.58;14.18;;;;;;;;;;5042600;28;20192;-69
2021/03/31 08:59:34;;;;;;;24.67;13.38;;;;;;;;;;5028505;28;20647;-70
2021/03/31 09:02:00;;;;;;;23.63;14.25;;;;;;;;;;5037187;28;20209;-70
2021/03/31 09:04:26;;;;;;;23.75;14.82;;;;;;;;;;5026754;28;20291;-70
2021/03/31 09:06:54;;;;;;;28.13;15.55;;;;;;;;;;5029583;28;20231;-70
2021/03/31 09:09:19;;;;;;;29.38;16.35;;;;;;;;;;5025056;28;20178;-70
2021/03/31 09:11:45;;;;;;;29.08;16.15;;;;;;;;;;5032428;28;20207;-69
2021/03/31 09:14:18;;;;;;;25.23;16.10;;;;;;;;;;5027531;28;20244;-70
2021/03/31 09:16:58;;;;;;;31.75;17.40;;;;;;;;;;5040770;28;20489;-70
2021/03/31 09:19:26;;;;;;;31.30;17.02;;;;;;;;;;5026106;28;20224;-71
2021/03/31 09:21:52;;;;;;;31.27;17.05;;;;;;;;;;5032640;28;20196;-70
2021/03/31 09:24:23;;;;;;;32.45;17.67;;;;;;;;;;5028281;28;22681;-70
2021/03/31 09:27:08;;;;;;;29.65;17.85;;;;;;;;;;5041266;28;20204;-71
2021/03/31 09:29:36;;;;;;;31.17;17.10;;;;;;;;;;5031141;28;20650;-71
2021/03/31 09:32:04;;;;;;;30.38;17.58;;;;;;;;;;5034814;28;20497;-70
2021/03/31 09:34:29;;;;;;;31.27;17.42;;;;;;;;;;5025872;28;20300;-70
2021/03/31 09:37:02;;;;;;;32.05;16.90;;;;;;;;;;5038444;28;20316;-71
2021/03/31 09:40:00;;;;;;;29.05;17.52;;;;;;;;;;5036434;28;20206;-71
2021/03/31 09:42:32;;;;;;;32.20;17.73;;;;;;;;;;5028190;28;20335;-71
2021/03/31 09:44:58;;;;;;;31.13;18.30;;;;;;;;;;5035221;28;20186;-71
2021/03/31 09:47:25;;;;;;;29.85;17.58;;;;;;;;;;5035782;28;20656;-70
2021/03/31 09:49:52;;;;;;;31.52;19.63;;;;;;;;;;5037209;28;20713;-70
2021/03/31 09:52:24;;;;;;;31.40;18.50;;;;;;;;;;5028239;28;20207;-70
2021/03/31 09:54:50;;;;;;;34.50;18.95;;;;;;;;;;5032978;28;20622;-71
2021/03/31 09:57:16;;;;;;;30.30;18.02;;;;;;;;;;5030080;28;20281;-71
2021/03/31 09:59:42;;;;;;;31.95;17.90;;;;;;;;;;5032065;28;20514;-70
2021/03/31 10:02:12;;;;;;;33.58;18.65;;;;;;;;;;5032358;28;20700;-71
2021/03/31 10:04:40;;;;;;;28.95;17.88;;;;;;;;;;5039604;28;20235;-71
2021/03/31 10:07:17;;;;;;;39.20;18.95;;;;;;;;;;5032170;28;20617;-71
2021/03/31 10:09:48;;;;;;;32.63;18.95;;;;;;;;;;5036565;28;20178;-70
2021/03/31 10:12:26;;;;;;;31.13;19.00;;;;;;;;;;5029458;28;20200;-69
2021/03/31 10:14:55;;;;;;;32.55;18.30;;;;;;;;;;5037732;28;20188;-70
2021/03/31 10:17:23;;;;;;;32.70;18.40;;;;;;;;;;5029759;28;20182;-70
2021/03/31 10:19:49;;;;;;;35.95;19.17;;;;;;;;;;5036828;28;20284;-70
2021/03/31 10:22:16;;;;;;;34.88;19.00;;;;;;;;;;5025611;28;20610;-71
2021/03/31 10:24:48;;;;;;;33.95;19.20;;;;;;;;;;5040563;28;20681;-70
2021/03/31 10:27:16;;;;;;;34.80;19.58;;;;;;;;;;5033180;28;20201;-70
2021/03/31 10:29:52;;;;;;;35.00;19.90;;;;;;;;;;5039626;28;20196;-70
2021/03/31 10:32:21;;;;;;;32.40;20.02;;;;;;;;;;5041476;28;20200;-71
2021/03/31 10:34:52;;;;;;;37.20;20.50;;;;;;;;;;5036434;28;20641;-70
2021/03/31 10:48:39;;;;;;;36.13;20.75;;;;;;;;;;5027577;28;21327;-70
2021/03/31 10:51:16;;;;;;;34.95;20.48;;;;;;;;;;5037834;28;20201;-73
2021/03/31 10:53:45;;;;;;;36.47;20.65;;;;;;;;;;5023830;28;20251;-70
2021/03/31 10:56:12;;;;;;;35.85;20.35;;;;;;;;;;5039209;28;20234;-70
2021/03/31 10:58:41;;;;;;;39.90;20.95;;;;;;;;;;5037825;28;20206;-70
2021/03/31 11:01:07;;;;;;;34.90;19.95;;;;;;;;;;5027032;28;20225;-70
2021/03/31 11:03:32;;;;;;;38.17;20.30;;;;;;;;;;5038663;28;20630;-70
2021/03/31 11:05:57;;;;;;;38.00;20.35;;;;;;;;;;5031733;28;20613;-71
2021/03/31 11:08:23;;;;;;;40.97;21.80;;;;;;;;;;5036430;28;20178;-71
2021/03/31 11:10:49;;;;;;;41.38;21.02;;;;;;;;;;5030855;28;20186;-71
2021/03/31 11:13:14;;;;;;;39.03;20.80;;;;;;;;;;5037187;28;20228;-71
2021/03/31 11:15:40;;;;;;;36.22;20.33;;;;;;;;;;5031907;28;20213;-70
2021/03/31 11:18:18;;;;;;;41.95;22.17;;;;;;;;;;5038470;28;20653;-70
2021/03/31 11:26:16;;;;;;;37.33;20.42;;;;;;;;;;5023410;28;20208;-71
2021/03/31 11:28:42;;;;;;;38.00;20.88;;;;;;;;;;5041683;28;20169;-71
2021/03/31 11:31:08;;;;;;;36.70;20.00;;;;;;;;;;5028525;28;20446;-71
2021/03/31 11:33:34;;;;;;;38.33;19.90;;;;;;;;;;5041543;28;20218;-71
2021/03/31 11:35:59;;;;;;;31.95;18.10;;;;;;;;;;5022906;28;20636;-69
2021/03/31 11:38:25;;;;;;;35.67;18.75;;;;;;;;;;5040138;28;20247;-69
2021/03/31 11:40:51;;;;;;;36.30;19.10;;;;;;;;;;5040502;28;20189;-70
2021/03/31 11:43:17;;;;;;;34.35;17.73;;;;;;;;;;5026876;28;20193;-69
2021/03/31 11:45:43;;;;;;;34.33;17.55;;;;;;;;;;5034816;28;20194;-69
2021/03/31 11:48:08;;;;;;;37.42;19.65;;;;;;;;;;5029650;28;20228;-70
2021/03/31 11:50:34;;;;;;;37.05;19.80;;;;;;;;;;5034283;28;20760;-70
2021/03/31 11:52:59;;;;;;;33.78;19.52;;;;;;;;;;5026585;28;20660;-70
2021/03/31 11:55:25;;;;;;;31.63;19.55;;;;;;;;;;5039613;28;20244;-70
2021/03/31 11:57:51;;;;;;;34.50;19.95;;;;;;;;;;5025427;28;20181;-70
2021/03/31 12:00:17;;;;;;;33.35;17.85;;;;;;;;;;5032946;28;20230;-70
2021/03/31 12:02:44;;;;;;;38.55;18.20;;;;;;;;;;5027144;28;20268;-71
2021/03/31 12:05:11;;;;;;;36.78;20.23;;;;;;;;;;5032934;28;20189;-71
2021/03/31 12:07:36;;;;;;;31.55;19.00;;;;;;;;;;5030141;28;20199;-71
2021/03/31 12:10:07;;;;;;;33.50;19.30;;;;;;;;;;5038527;28;20178;-70
2021/03/31 12:12:42;;;;;;;35.83;19.98;;;;;;;;;;5029883;28;20221;-71
2021/03/31 12:15:13;;;;;;;37.40;19.73;;;;;;;;;;5036839;28;20193;-71
2021/03/31 12:17:39;;;;;;;33.25;19.80;;;;;;;;;;5034525;28;20201;-71
2021/03/31 12:20:14;;;;;;;34.78;19.70;;;;;;;;;;5028149;28;20949;-71
2021/03/31 12:22:41;;;;;;;39.00;21.10;;;;;;;;;;5040727;28;20264;-71
2021/03/31 12:25:07;;;;;;;36.45;20.60;;;;;;;;;;5027117;28;20273;-71
2021/03/31 12:27:34;;;;;;;33.80;19.23;;;;;;;;;;5033931;28;20189;-70
2021/03/31 12:30:01;;;;;;;34.30;20.70;;;;;;;;;;5031059;28;20189;-71
2021/03/31 12:32:26;;;;;;;34.17;21.05;;;;;;;;;;5035013;28;20261;-71
2021/03/31 12:34:52;;;;;;;37.28;20.70;;;;;;;;;;5031386;28;20324;-70
2021/03/31 12:37:18;;;;;;;42.72;21.27;;;;;;;;;;5038273;28;20688;-71
2021/03/31 12:39:43;;;;;;;31.95;19.70;;;;;;;;;;5028766;28;20217;-71
2021/03/31 12:42:09;;;;;;;28.15;17.10;;;;;;;;;;5034580;28;20548;-71
2021/03/31 12:44:34;;;;;;;31.75;18.38;;;;;;;;;;5032954;28;20598;-71
2021/03/31 12:46:59;;;;;;;34.90;20.30;;;;;;;;;;5037772;28;20190;-71
2021/03/31 12:49:25;;;;;;;38.25;20.98;;;;;;;;;;5036578;28;20222;-70
2021/03/31 12:51:56;;;;;;;38.50;20.60;;;;;;;;;;5030579;28;20671;-71
2021/03/31 12:54:29;;;;;;;36.63;19.98;;;;;;;;;;5044609;28;20219;-71
2021/03/31 12:56:55;;;;;;;34.92;20.05;;;;;;;;;;5028484;28;20615;-71
2021/03/31 12:59:20;;;;;;;38.97;21.23;;;;;;;;;;5038734;28;20555;-70
2021/03/31 13:01:46;;;;;;;36.83;21.67;;;;;;;;;;5031346;28;20185;-70
2021/03/31 13:04:13;;;;;;;30.60;18.67;;;;;;;;;;5032844;28;20202;-71
2021/03/31 13:06:39;;;;;;;29.60;18.13;;;;;;;;;;5031648;28;20209;-70
2021/03/31 13:09:05;;;;;;;28.55;18.00;;;;;;;;;;5038654;28;20176;-70
2021/03/31 13:11:31;;;;;;;29.25;17.33;;;;;;;;;;5036239;28;20199;-70
2021/03/31 13:24:40;;;;;;;32.75;18.38;;;;;;;;;;5047021;28;20196;-71
2021/03/31 13:32:07;;;;;;;31.67;18.58;;;;;;;;;;5035505;28;20189;-71
2021/03/31 13:34:37;;;;;;;31.45;18.95;;;;;;;;;;5041455;28;20565;-71
2021/03/31 13:37:13;;;;;;;33.47;20.10;;;;;;;;;;5033305;28;20523;-72
2021/03/31 13:39:46;;;;;;;40.15;21.98;;;;;;;;;;5046184;28;20212;-71
2021/03/31 13:42:11;;;;;;;31.10;19.67;;;;;;;;;;5034202;28;20251;-72
2021/03/31 13:44:37;;;;;;;34.58;21.15;;;;;;;;;;5043007;28;20251;-71
2021/03/31 13:47:05;;;;;;;38.42;21.17;;;;;;;;;;5039858;28;20219;-71
2021/03/31 13:49:37;;;;;;;38.95;22.27;;;;;;;;;;5034552;28;20702;-71
2021/03/31 13:54:50;;;;;;;40.38;23.55;;;;;;;;;;5021285;28;20666;-70
2021/03/31 13:57:20;;;;;;;39.85;23.52;;;;;;;;;;5035592;28;20262;-69
2021/03/31 13:59:45;;;;;;;39.42;22.98;;;;;;;;;;5032104;28;20202;-70
2021/03/31 14:02:10;;;;;;;38.83;23.65;;;;;;;;;;5035176;28;20307;-70
2021/03/31 14:04:36;;;;;;;37.55;23.00;;;;;;;;;;5029265;28;20264;-71
2021/03/31 14:07:01;;;;;;;37.47;22.13;;;;;;;;;;5037418;28;20182;-71
2021/03/31 14:09:27;;;;;;;39.83;23.55;;;;;;;;;;5025622;28;20683;-71
2021/03/31 14:11:52;;;;;;;36.03;23.23;;;;;;;;;;5034327;28;20181;-71
2021/03/31 14:14:19;;;;;;;41.72;24.60;;;;;;;;;;5026848;28;20240;-70
2021/03/31 14:19:27;;;;;;;40.58;24.70;;;;;;;;;;5029237;28;20217;-71
2021/03/31 14:21:53;;;;;;;41.40;23.15;;;;;;;;;;5033356;28;20663;-71
2021/03/31 14:24:18;;;;;;;39.67;23.08;;;;;;;;;;5025136;28;20280;-72
2021/03/31 14:26:43;;;;;;;42.55;25.67;;;;;;;;;;5025011;28;20621;-71
2021/03/31 14:29:10;;;;;;;39.47;23.63;;;;;;;;;;5036884;28;20548;-71
2021/03/31 14:31:35;;;;;;;38.55;23.58;;;;;;;;;;5029046;28;20335;-71
2021/03/31 14:34:03;;;;;;;40.38;23.98;;;;;;;;;;5041678;28;20264;-71
2021/03/31 14:36:29;;;;;;;36.15;22.42;;;;;;;;;;5027975;28;20194;-71
2021/03/31 14:38:54;;;;;;;40.70;23.55;;;;;;;;;;5033058;28;20214;-71
2021/03/31 14:41:20;;;;;;;41.95;23.40;;;;;;;;;;5030397;28;20194;-70
2021/03/31 14:43:45;;;;;;;43.03;25.13;;;;;;;;;;5035304;28;20556;-70
2021/03/31 14:46:11;;;;;;;40.50;24.13;;;;;;;;;;5030128;28;21775;-71
2021/03/31 14:48:38;;;;;;;39.38;23.45;;;;;;;;;;5035798;28;20218;-71
2021/03/31 14:51:03;;;;;;;37.83;22.65;;;;;;;;;;5030433;28;20201;-71
2021/03/31 15:01:31;;;;;;;33.15;19.90;;;;;;;;;;5027692;28;20289;-71
2021/03/31 15:03:56;;;;;;;34.45;20.67;;;;;;;;;;5039938;28;20684;-71
2021/03/31 15:06:21;;;;;;;32.90;20.73;;;;;;;;;;5036787;28;20218;-71
2021/03/31 15:08:47;;;;;;;35.85;20.15;;;;;;;;;;5021916;28;20236;-71
2021/03/31 15:11:12;;;;;;;32.20;19.85;;;;;;;;;;5038313;28;20236;-71